Comité directeur de l'aéroclub

Bureau Directeur 2017 :

Suite à l’Assemblée Générale Ordinaire et à l’élection des tiers sortants et de deux nouveaux candidats, une réunion de bureau a eu lieu afin de déterminer l’attribution des fonctions.
Le bureau est désormais composé comme suit :

Président : Michel Richez
Vice-Président : Jean-Pierre Moreau
Trésorier : Thierry Mauberger
Trésorier adjoint : Christophe Giansanti
Secrétaire : Denis Joseph
Secrétaire adjoint : François Bureau
Relation ANEG : Christian Raffaitin
ULM : Yves Point
Membres : Serge Briant, Jean Luc Cerceau, Philippe Fernandes, Marjan Goral, Sylvette Plumé

Statuts de l'aéroclub (2015) : cliquer
Règlement intérieur (2014) : cliquer

Webcam :

Nuit aéronautique

16 Dec 2018

Heure locale,
pour LFDL uniquement.

Lever du soleil aéronautique :08:11
Lever du soleil :08:41
Coucher du soleil :17:09
Coucher du soleil aéronautique :17:39

Metar

LFBI :
2018/12/16 14:30
LFBI 161430Z AUTO 18007KT 9999 OVC008 09/08 Q1011 TEMPO 26015G25KT 2500 SHRA BKN015TCU
LFBI :
Poitiers, France (LFBI) 46-35N 000-19E 120M
Dec 16, 2018 - 09:30 AM EST / 2018.12.16 1430 UTC
Wind: from the S (180 degrees) at 8 MPH (7 KT):0
Visibility: greater than 7 mile(s):0
Sky conditions: overcast
Weather: Towering cumulus clouds observed
Temperature: 48 F (9 C)
Dew Point: 46 F (8 C)
Relative Humidity: 93%
Pressure (altimeter): 29.85 in. Hg (1011 hPa)
ob: LFBI 161430Z AUTO 18007KT 9999 OVC008 09/08 Q1011 TEMPO 26015G25KT 2500 SHRA BKN015TCU
cycle: 14

Afficher le metar d'une autre station :
Code OACI :

Aéroclub de Loudun


Bellevue
86200 Loudun


Contacter Michel Richez (président)

  • Mail:michel.richez@free.fr
  • Tel:09-50-38-02-06
  • Mobile:06-52-73-09-01



agrandir le plan

Newsletter

Mon e-mail :